createdAt,value
2022-09-06T00:00:40.627Z,101689.63
2022-09-06T00:03:08.300Z,101669.84
2022-09-06T00:05:35.785Z,101666.03
2022-09-06T00:08:03.970Z,101664.16
2022-09-06T00:10:30.825Z,101664.38
2022-09-06T00:13:04.161Z,101673.47
2022-09-06T00:15:31.000Z,101680.06
2022-09-06T00:18:02.634Z,101671.59
2022-09-06T00:20:30.192Z,101658.44
2022-09-06T00:23:00.932Z,101651.19
2022-09-06T00:25:28.837Z,101655.44
2022-09-06T00:28:02.508Z,101639.50
2022-09-06T00:30:29.814Z,101651.59
2022-09-06T00:32:56.483Z,101628.66
2022-09-06T00:35:26.983Z,101622.88
2022-09-06T00:38:01.103Z,101610.69
2022-09-06T00:40:29.496Z,101593.25
2022-09-06T00:42:57.304Z,101588.19
2022-09-06T00:45:24.733Z,101573.31
2022-09-06T00:47:51.481Z,101575.88
2022-09-06T00:50:18.608Z,101553.50
2022-09-06T00:52:47.170Z,101554.34
2022-09-06T00:55:14.335Z,101549.50
2022-09-06T00:57:41.233Z,101545.22
2022-09-06T01:00:09.704Z,101544.78
2022-09-06T01:02:36.512Z,101538.22
2022-09-06T01:05:03.620Z,101535.25
2022-09-06T01:07:58.857Z,101523.34
2022-09-06T01:10:37.569Z,101514.91
2022-09-06T01:13:13.080Z,101514.47
2022-09-06T01:15:50.364Z,101504.06
2022-09-06T01:18:32.182Z,101500.66
2022-09-06T01:21:30.515Z,101502.16
2022-09-06T01:24:25.350Z,101494.50
2022-09-06T01:27:20.600Z,101497.06
2022-09-06T01:30:09.333Z,101494.31
2022-09-06T01:32:54.169Z,101489.63
2022-09-06T01:35:25.172Z,101487.69
2022-09-06T01:37:51.933Z,101484.50
2022-09-06T01:40:18.615Z,101478.34
2022-09-06T01:42:46.415Z,101483.22
2022-09-06T01:45:17.226Z,101486.19
2022-09-06T01:47:55.688Z,101481.69
2022-09-06T01:50:34.495Z,101475.47
2022-09-06T01:53:38.553Z,101473.13
2022-09-06T01:56:19.487Z,101471.41
2022-09-06T01:59:13.468Z,101468.25
2022-09-06T02:02:07.718Z,101476.78
2022-09-06T02:04:44.322Z,101495.50
2022-09-06T02:07:18.757Z,101487.63
2022-09-06T02:09:48.813Z,101485.53
2022-09-06T02:12:17.271Z,101483.63
2022-09-06T02:14:53.600Z,101484.69
2022-09-06T02:17:21.734Z,101482.78
2022-09-06T02:20:01.931Z,101480.88
2022-09-06T02:22:31.120Z,101473.88
2022-09-06T02:24:59.600Z,101478.31
2022-09-06T02:27:26.290Z,101485.78
2022-09-06T02:29:53.044Z,101486.59
2022-09-06T02:32:24.223Z,101474.94
2022-09-06T02:34:53.172Z,101487.69
2022-09-06T02:37:20.031Z,101497.88
2022-09-06T02:39:46.579Z,101487.06
2022-09-06T02:42:14.748Z,101494.91
2022-09-06T02:44:41.465Z,101497.88
2022-09-06T02:47:08.043Z,101496.81
2022-09-06T02:49:34.985Z,101498.28
2022-09-06T02:54:42.065Z,101500.22
2022-09-06T02:57:08.572Z,101498.53
2022-09-06T02:59:35.081Z,101513.38
2022-09-06T03:02:01.635Z,101516.97
2022-09-06T03:04:28.246Z,101523.13
2022-09-06T03:06:56.323Z,101532.06
2022-09-06T03:09:22.925Z,101538.00
2022-09-06T03:11:49.450Z,101547.56
2022-09-06T03:14:17.220Z,101557.13
2022-09-06T03:16:43.792Z,101565.41
2022-09-06T03:19:10.351Z,101547.53
2022-09-06T03:21:36.919Z,101544.97
2022-09-06T03:24:03.610Z,101543.09
2022-09-06T03:26:30.651Z,101545.44
2022-09-06T03:28:57.157Z,101561.34
2022-09-06T03:31:23.670Z,101550.09
2022-09-06T03:33:50.180Z,101548.41
2022-09-06T03:36:17.350Z,101539.28
2022-09-06T03:38:44.032Z,101539.69
2022-09-06T03:41:10.591Z,101537.34
2022-09-06T03:43:37.130Z,101543.75
2022-09-06T03:46:03.697Z,101537.59
2022-09-06T03:48:30.430Z,101543.75
2022-09-06T03:50:58.044Z,101552.66
2022-09-06T03:53:26.120Z,101552.66
2022-09-06T03:55:54.102Z,101550.72
2022-09-06T03:58:22.557Z,101553.28
2022-09-06T04:00:49.799Z,101564.31
2022-09-06T04:03:19.367Z,101577.44
2022-09-06T04:05:46.712Z,101579.75
2022-09-06T04:08:13.581Z,101597.72
2022-09-06T04:10:40.324Z,101594.13
2022-09-06T04:13:06.818Z,101615.31
2022-09-06T04:15:33.323Z,101616.94
2022-09-06T04:17:59.808Z,101623.72
2022-09-06T04:20:26.424Z,101634.09
2022-09-06T04:22:53.609Z,101631.78
2022-09-06T04:25:20.180Z,101629.03
2022-09-06T04:27:46.750Z,101628.16
2022-09-06T04:30:13.258Z,101617.34
2022-09-06T04:32:39.856Z,101629.00
2022-09-06T04:35:06.761Z,101625.59
2022-09-06T04:37:33.266Z,101624.09
2022-09-06T04:39:59.845Z,101624.69
2022-09-06T04:42:26.481Z,101615.81
2022-09-06T04:44:53.033Z,101614.50
2022-09-06T04:47:19.667Z,101624.88
2022-09-06T04:49:46.502Z,101622.09
2022-09-06T04:52:13.050Z,101618.69
2022-09-06T04:54:39.588Z,101605.59
2022-09-06T04:57:06.274Z,101603.03
2022-09-06T04:59:32.831Z,101594.97
2022-09-06T05:01:59.454Z,101595.41
2022-09-06T05:04:26.199Z,101597.50
2022-09-06T05:07:03.493Z,101596.44
2022-09-06T05:09:30.118Z,101595.78
2022-09-06T05:11:56.609Z,101606.16
2022-09-06T05:14:23.462Z,101595.09
2022-09-06T05:16:50.578Z,101592.56
2022-09-06T05:19:17.841Z,101591.47
2022-09-06T05:21:44.346Z,101590.22
2022-09-06T05:24:11.008Z,101585.53
2022-09-06T05:29:17.700Z,101578.41
2022-09-06T05:31:44.338Z,101578.91
2022-09-06T05:34:13.426Z,101566.88
2022-09-06T05:36:41.691Z,101560.31
2022-09-06T05:39:08.337Z,101552.31
2022-09-06T05:41:34.974Z,101539.00
2022-09-06T05:44:01.548Z,101529.25
2022-09-06T05:46:28.043Z,101524.22
2022-09-06T05:48:55.719Z,101520.59
2022-09-06T05:51:22.281Z,101525.72
2022-09-06T05:53:48.821Z,101526.34
2022-09-06T05:56:16.245Z,101515.75
2022-09-06T05:58:43.057Z,101514.47
2022-09-06T06:01:18.831Z,101518.50
2022-09-06T06:04:02.639Z,101518.06
2022-09-06T06:06:33.734Z,101502.78
2022-09-06T06:09:01.512Z,101501.13
2022-09-06T06:11:29.565Z,101511.50
2022-09-06T06:13:56.189Z,101513.19
2022-09-06T06:16:23.169Z,101502.59
2022-09-06T06:18:52.253Z,101496.84
2022-09-06T06:21:21.311Z,101498.78
2022-09-06T06:23:50.822Z,101491.56
2022-09-06T06:26:17.565Z,101493.03
2022-09-06T06:28:44.212Z,101498.75
2022-09-06T06:31:12.151Z,101497.66
2022-09-06T06:33:39.684Z,101494.72
2022-09-06T06:36:13.440Z,101490.22
2022-09-06T06:38:41.907Z,101482.78
2022-09-06T06:41:10.335Z,101481.69
2022-09-06T06:43:37.776Z,101482.09
2022-09-06T06:46:05.040Z,101479.56
2022-09-06T06:48:32.041Z,101474.81
2022-09-06T06:50:58.800Z,101471.63
2022-09-06T06:53:25.328Z,101476.88
2022-09-06T06:55:51.876Z,101472.88
2022-09-06T06:58:19.169Z,101476.63
2022-09-06T07:00:46.225Z,101476.16
2022-09-06T07:03:13.493Z,101482.78
2022-09-06T07:08:27.200Z,101460.84
2022-09-06T07:10:53.983Z,101457.09
2022-09-06T07:13:20.704Z,101456.81
2022-09-06T07:15:47.292Z,101462.41
2022-09-06T07:18:15.912Z,101458.78
2022-09-06T07:26:17.444Z,101457.91
2022-09-06T07:28:44.257Z,101466.13
2022-09-06T07:33:57.814Z,101449.47
2022-09-06T07:36:24.453Z,101451.00
2022-09-06T07:38:51.432Z,101454.69
2022-09-06T07:41:19.000Z,101467.56
2022-09-06T07:43:45.805Z,101470.59
2022-09-06T07:48:56.166Z,101474.88
2022-09-06T07:51:22.855Z,101478.06
2022-09-06T07:53:57.959Z,101470.72
2022-09-06T07:56:25.061Z,101464.78
2022-09-06T07:58:52.556Z,101473.59
2022-09-06T08:01:31.135Z,101467.66
2022-09-06T08:03:58.939Z,101471.63
2022-09-06T08:06:26.752Z,101475.34
2022-09-06T08:11:25.021Z,101466.81
2022-09-06T08:13:54.742Z,101476.28
2022-09-06T08:16:24.242Z,101474.72
2022-09-06T08:18:52.776Z,101481.94
2022-09-06T08:21:20.209Z,101469.44
2022-09-06T08:23:48.909Z,101479.13
2022-09-06T08:26:16.784Z,101457.00
2022-09-06T08:28:43.622Z,101458.38
2022-09-06T08:31:15.701Z,101458.59
2022-09-06T08:33:43.305Z,101453.13
2022-09-06T08:36:11.445Z,101444.06
2022-09-06T08:38:37.993Z,101438.50
2022-09-06T08:41:09.089Z,101440.66
2022-09-06T08:43:36.659Z,101447.50
2022-09-06T08:46:04.283Z,101440.25
2022-09-06T08:48:37.143Z,101442.94
2022-09-06T08:51:21.776Z,101455.38
2022-09-06T08:53:48.559Z,101442.34
2022-09-06T08:59:12.053Z,101451.88
2022-09-06T09:02:04.671Z,101458.78
2022-09-06T09:04:32.059Z,101470.81
2022-09-06T09:07:00.807Z,101471.28
2022-09-06T09:09:30.590Z,101468.94
2022-09-06T09:11:57.316Z,101459.63
2022-09-06T09:14:35.391Z,101459.03
2022-09-06T09:17:15.997Z,101475.16
2022-09-06T09:19:42.654Z,101474.63
2022-09-06T09:22:10.099Z,101485.91
2022-09-06T09:24:37.118Z,101476.97
2022-09-06T09:27:11.024Z,101478.19
2022-09-06T09:32:50.094Z,101474.78
2022-09-06T09:35:40.535Z,101473.41
2022-09-06T09:38:11.689Z,101466.53
2022-09-06T09:40:53.209Z,101469.75
2022-09-06T09:43:22.504Z,101473.59
2022-09-06T09:46:10.118Z,101453.53
2022-09-06T09:48:37.221Z,101460.44
2022-09-06T09:51:46.290Z,101468.59
2022-09-06T09:54:15.407Z,101466.28
2022-09-06T09:56:44.365Z,101471.38
2022-09-06T09:59:24.853Z,101477.53
2022-09-06T10:01:55.719Z,101477.72
2022-09-06T10:07:26.811Z,101476.06
2022-09-06T10:10:01.866Z,101476.13
2022-09-06T10:12:36.547Z,101485.38
2022-09-06T10:15:06.880Z,101497.59
2022-09-06T10:20:12.960Z,101478.63
2022-09-06T10:25:39.189Z,101495.38
2022-09-06T10:30:36.312Z,101501.94
2022-09-06T10:33:08.628Z,101495.13
2022-09-06T10:35:37.370Z,101488.59
2022-09-06T10:38:15.715Z,101501.56
2022-09-06T10:41:01.604Z,101488.91
2022-09-06T10:43:37.773Z,101483.53
2022-09-06T10:46:18.767Z,101482.63
2022-09-06T10:51:30.305Z,101483.25
2022-09-06T10:54:13.952Z,101485.75
2022-09-06T10:56:49.600Z,101480.03
2022-09-06T10:59:38.497Z,101486.41
2022-09-06T11:02:30.686Z,101476.44
2022-09-06T11:10:45.370Z,101488.00
2022-09-06T11:13:23.645Z,101487.25
2022-09-06T11:15:52.296Z,101480.66
2022-09-06T11:18:26.503Z,101495.31
2022-09-06T11:21:19.242Z,101494.28
2022-09-06T11:26:36.744Z,101497.44
2022-09-06T11:29:04.810Z,101503.84
2022-09-06T11:34:36.585Z,101508.25
2022-09-06T11:37:25.050Z,101507.41
2022-09-06T11:42:52.487Z,101501.66
2022-09-06T11:45:22.312Z,101509.09
2022-09-06T11:47:53.201Z,101521.47
2022-09-06T11:50:24.376Z,101516.41
2022-09-06T11:53:12.798Z,101512.22
2022-09-06T11:58:19.119Z,101517.97
2022-09-06T12:04:09.039Z,101495.41
2022-09-06T12:06:42.036Z,101481.91
2022-09-06T12:09:30.954Z,101475.75
2022-09-06T12:11:58.481Z,101479.53
2022-09-06T12:14:46.842Z,101477.28
2022-09-06T12:17:13.393Z,101472.53
2022-09-06T12:19:52.950Z,101473.94
2022-09-06T12:22:37.661Z,101480.06
2022-09-06T12:25:22.972Z,101471.94
2022-09-06T12:27:57.868Z,101457.94
2022-09-06T12:30:44.099Z,101451.38
2022-09-06T12:33:24.798Z,101457.78
2022-09-06T12:35:58.895Z,101457.56
2022-09-06T12:38:26.240Z,101455.91
2022-09-06T12:40:56.544Z,101465.66
2022-09-06T12:43:23.063Z,101458.44
2022-09-06T12:45:51.644Z,101462.38
2022-09-06T12:48:33.434Z,101454.44
2022-09-06T12:51:05.980Z,101457.91
2022-09-06T12:56:08.778Z,101462.47
2022-09-06T12:58:36.417Z,101459.03
2022-09-06T13:01:12.424Z,101449.59
2022-09-06T13:03:38.929Z,101449.94
2022-09-06T13:08:53.636Z,101453.28
2022-09-06T13:11:29.727Z,101463.06
2022-09-06T13:13:56.431Z,101455.94
2022-09-06T13:16:26.025Z,101453.34
2022-09-06T13:18:53.434Z,101462.75
2022-09-06T13:21:33.169Z,101466.19
2022-09-06T13:24:13.741Z,101465.91
2022-09-06T13:26:40.572Z,101456.84
2022-09-06T13:29:30.607Z,101458.91
2022-09-06T13:31:59.361Z,101453.97
2022-09-06T13:34:31.087Z,101455.78
2022-09-06T13:37:03.509Z,101454.44
2022-09-06T13:39:33.095Z,101449.06
2022-09-06T13:42:12.312Z,101445.19
2022-09-06T13:44:39.757Z,101441.88
2022-09-06T13:47:06.538Z,101435.53
2022-09-06T13:49:33.805Z,101434.56
2022-09-06T13:52:02.184Z,101428.09
2022-09-06T13:54:29.806Z,101432.44
2022-09-06T13:59:37.324Z,101432.63
2022-09-06T14:02:07.653Z,101423.50
2022-09-06T14:04:35.689Z,101420.72
2022-09-06T14:07:02.626Z,101409.50
2022-09-06T14:09:30.034Z,101401.28
2022-09-06T14:12:04.560Z,101401.72
2022-09-06T14:14:31.069Z,101402.31
2022-09-06T14:16:57.581Z,101399.66
2022-09-06T14:19:24.182Z,101405.38
2022-09-06T14:21:50.694Z,101407.31
2022-09-06T14:24:17.754Z,101406.25
2022-09-06T14:26:44.298Z,101406.50
2022-09-06T14:29:10.905Z,101404.38
2022-09-06T14:31:38.922Z,101404.91
2022-09-06T14:34:05.688Z,101401.72
2022-09-06T14:36:32.767Z,101411.81
2022-09-06T14:39:00.228Z,101400.91
2022-09-06T14:41:27.256Z,101403.47
2022-09-06T14:43:55.565Z,101402.91
2022-09-06T14:46:23.885Z,101403.34
2022-09-06T14:49:00.541Z,101405.47
2022-09-06T14:51:27.540Z,101403.91
2022-09-06T14:53:59.830Z,101402.38
2022-09-06T14:56:27.010Z,101394.84
2022-09-06T14:58:57.176Z,101383.53
2022-09-06T15:01:26.631Z,101386.69
2022-09-06T15:03:58.410Z,101374.59
2022-09-06T15:06:26.018Z,101379.50
2022-09-06T15:08:58.418Z,101377.25
2022-09-06T15:11:34.584Z,101370.25
2022-09-06T15:14:06.226Z,101362.75
2022-09-06T15:16:33.349Z,101361.13
2022-09-06T15:19:00.000Z,101353.44
2022-09-06T15:21:26.691Z,101350.56
2022-09-06T15:23:53.279Z,101351.31
2022-09-06T15:26:19.885Z,101346.44
2022-09-06T15:28:46.846Z,101341.91
2022-09-06T15:31:15.924Z,101338.94
2022-09-06T15:33:42.630Z,101341.06
2022-09-06T15:36:10.557Z,101339.94
2022-09-06T15:38:42.333Z,101339.66
2022-09-06T15:41:27.052Z,101330.56
2022-09-06T15:43:55.468Z,101330.72
2022-09-06T15:46:48.236Z,101327.81
2022-09-06T15:49:19.273Z,101334.56
2022-09-06T15:51:46.691Z,101328.69
2022-09-06T15:54:14.591Z,101330.78
2022-09-06T15:56:41.816Z,101333.34
2022-09-06T15:59:08.464Z,101339.41
2022-09-06T16:01:35.680Z,101342.41
2022-09-06T16:04:05.516Z,101342.06
2022-09-06T16:06:42.027Z,101343.66
2022-09-06T16:09:13.776Z,101335.81
2022-09-06T16:14:21.898Z,101332.41
2022-09-06T16:16:48.453Z,101332.13
2022-09-06T16:19:15.013Z,101334.13
2022-09-06T16:21:42.942Z,101327.91
2022-09-06T16:24:11.513Z,101311.97
2022-09-06T16:26:43.358Z,101311.34
2022-09-06T16:29:11.406Z,101302.97
2022-09-06T16:31:40.599Z,101317.28
2022-09-06T16:34:09.049Z,101311.41
2022-09-06T16:36:35.611Z,101313.56
2022-09-06T16:44:16.729Z,101312.31
2022-09-06T16:46:45.607Z,101317.50
2022-09-06T16:51:53.199Z,101319.13
2022-09-06T16:54:20.084Z,101315.13
2022-09-06T16:56:46.660Z,101307.91
2022-09-06T16:59:15.863Z,101308.97
2022-09-06T17:01:42.561Z,101299.91
2022-09-06T17:04:09.984Z,101304.88
2022-09-06T17:09:23.985Z,101290.25
2022-09-06T17:11:50.737Z,101288.69
2022-09-06T17:17:04.973Z,101291.31
2022-09-06T17:19:35.436Z,101283.59
2022-09-06T17:24:43.539Z,101287.47
2022-09-06T17:29:51.021Z,101288.16
2022-09-06T17:32:17.792Z,101281.50
2022-09-06T17:34:44.737Z,101277.00
2022-09-06T17:39:52.275Z,101275.75
2022-09-06T17:42:18.865Z,101277.75
2022-09-06T17:44:45.612Z,101271.94
2022-09-06T17:47:13.672Z,101272.47
2022-09-06T17:52:19.785Z,101272.44
2022-09-06T17:54:47.149Z,101265.19
2022-09-06T17:59:53.457Z,101271.28
2022-09-06T18:04:59.333Z,101267.06
2022-09-06T18:07:25.955Z,101263.13
2022-09-06T18:09:52.681Z,101254.38
2022-09-06T18:12:20.225Z,101264.81
2022-09-06T18:14:46.898Z,101252.53
2022-09-06T18:17:13.461Z,101255.72
2022-09-06T18:19:40.112Z,101260.06
2022-09-06T18:24:49.009Z,101258.31
2022-09-06T18:27:16.527Z,101260.50
2022-09-06T18:29:43.123Z,101259.09
2022-09-06T18:32:09.687Z,101254.53
2022-09-06T18:34:36.486Z,101254.50
2022-09-06T18:37:03.089Z,101249.94
2022-09-06T18:39:29.776Z,101246.59
2022-09-06T18:42:03.882Z,101241.78
2022-09-06T18:44:32.519Z,101242.47
2022-09-06T18:47:03.591Z,101238.78
2022-09-06T18:49:30.593Z,101239.56
2022-09-06T18:51:57.277Z,101234.16
2022-09-06T18:54:23.887Z,101228.00
2022-09-06T18:56:50.460Z,101230.72
2022-09-06T18:59:17.070Z,101229.28
2022-09-06T19:01:44.156Z,101233.44
2022-09-06T19:04:11.829Z,101223.31
2022-09-06T19:06:39.602Z,101227.69
2022-09-06T19:09:10.063Z,101226.75
2022-09-06T19:11:36.936Z,101217.00
2022-09-06T19:14:04.677Z,101212.72
2022-09-06T19:16:31.776Z,101217.34
2022-09-06T19:19:03.259Z,101214.56
2022-09-06T19:21:29.894Z,101216.19
2022-09-06T19:23:58.907Z,101215.81
2022-09-06T19:26:27.879Z,101216.91
2022-09-06T19:28:56.561Z,101209.31
2022-09-06T19:31:24.595Z,101215.63
2022-09-06T19:33:51.712Z,101227.00
2022-09-06T19:36:19.165Z,101224.47
2022-09-06T19:39:02.960Z,101211.16
2022-09-06T19:41:31.536Z,101224.13
2022-09-06T19:43:58.918Z,101223.53
2022-09-06T19:46:25.926Z,101221.84
2022-09-06T19:48:54.026Z,101211.25
2022-09-06T19:51:21.341Z,101199.44
2022-09-06T19:53:49.897Z,101171.00
2022-09-06T19:56:18.249Z,101172.00
2022-09-06T19:58:45.425Z,101176.28
2022-09-06T20:01:13.426Z,101177.28
2022-09-06T20:03:41.739Z,101176.84
2022-09-06T20:06:08.812Z,101175.50
2022-09-06T20:08:36.794Z,101186.00
2022-09-06T20:11:05.494Z,101169.94
2022-09-06T20:13:34.248Z,101163.94
2022-09-06T20:16:03.355Z,101174.50
2022-09-06T20:18:30.076Z,101193.81
2022-09-06T20:20:59.365Z,101202.31
2022-09-06T20:23:27.817Z,101212.88
2022-09-06T20:26:02.209Z,101203.34
2022-09-06T20:28:29.286Z,101188.78
2022-09-06T20:31:07.745Z,101181.41
2022-09-06T20:33:34.917Z,101187.13
2022-09-06T20:36:06.478Z,101172.41
2022-09-06T20:38:35.333Z,101177.56
2022-09-06T20:41:04.902Z,101182.38
2022-09-06T20:43:34.452Z,101189.25
2022-09-06T20:46:04.204Z,101177.28
2022-09-06T20:48:34.540Z,101173.38
2022-09-06T20:51:03.005Z,101185.75
2022-09-06T20:53:31.518Z,101203.72
2022-09-06T20:56:00.344Z,101210.16
2022-09-06T20:58:27.878Z,101223.47
2022-09-06T21:00:54.578Z,101238.47
2022-09-06T21:03:21.492Z,101289.31
2022-09-06T21:05:48.317Z,101357.19
2022-09-06T21:08:15.344Z,101416.03
2022-09-06T21:10:41.912Z,101503.16
2022-09-06T21:13:09.005Z,101573.66
2022-09-06T21:15:36.853Z,101605.16
2022-09-06T21:18:04.699Z,101581.03
2022-09-06T21:20:31.630Z,101567.84
2022-09-06T21:22:58.201Z,101571.81
2022-09-06T21:25:24.680Z,101568.75
2022-09-06T21:27:55.591Z,101554.59
2022-09-06T21:30:22.389Z,101550.22
2022-09-06T21:32:49.110Z,101533.72
2022-09-06T21:35:15.720Z,101528.69
2022-09-06T21:37:46.100Z,101554.31
2022-09-06T21:40:12.637Z,101568.53
2022-09-06T21:42:39.177Z,101567.91
2022-09-06T21:45:06.247Z,101563.50
2022-09-06T21:47:32.880Z,101584.72
2022-09-06T21:49:59.415Z,101593.00
2022-09-06T21:52:25.940Z,101593.66
2022-09-06T21:54:52.431Z,101577.97
2022-09-06T21:57:18.977Z,101576.69
2022-09-06T21:59:45.528Z,101584.31
2022-09-06T22:02:12.683Z,101572.66
2022-09-06T22:04:40.248Z,101571.19
2022-09-06T22:07:06.737Z,101579.63
2022-09-06T22:09:33.259Z,101584.50
2022-09-06T22:11:59.758Z,101580.91
2022-09-06T22:14:26.636Z,101568.41
2022-09-06T22:16:53.478Z,101545.28
2022-09-06T22:19:20.295Z,101531.66
2022-09-06T22:21:46.887Z,101525.69
2022-09-06T22:24:15.736Z,101517.22
2022-09-06T22:26:42.629Z,101499.84
2022-09-06T22:29:11.578Z,101475.25
2022-09-06T22:31:38.394Z,101469.47
2022-09-06T22:34:05.461Z,101487.50
2022-09-06T22:36:32.431Z,101514.19
2022-09-06T22:38:59.147Z,101529.84
2022-09-06T22:41:27.278Z,101530.31
2022-09-06T22:43:54.341Z,101532.63
2022-09-06T22:46:21.130Z,101538.16
2022-09-06T22:48:47.765Z,101527.97
2022-09-06T22:51:14.340Z,101499.38
2022-09-06T22:53:40.890Z,101488.34
2022-09-06T22:56:07.495Z,101480.94
2022-09-06T22:58:35.411Z,101477.78
2022-09-06T23:01:10.593Z,101463.34
2022-09-06T23:03:37.836Z,101454.44
2022-09-06T23:06:04.514Z,101440.50
2022-09-06T23:08:31.970Z,101425.03
2022-09-06T23:11:03.018Z,101418.47
2022-09-06T23:13:29.504Z,101407.66
2022-09-06T23:16:02.518Z,101396.84
2022-09-06T23:18:29.147Z,101400.00
2022-09-06T23:20:55.638Z,101395.56
2022-09-06T23:23:22.178Z,101394.50
2022-09-06T23:25:48.662Z,101389.41
2022-09-06T23:28:15.162Z,101386.66
2022-09-06T23:30:41.692Z,101375.84
2022-09-06T23:33:08.246Z,101365.47
2022-09-06T23:35:34.758Z,101359.97
2022-09-06T23:38:01.252Z,101352.34
2022-09-06T23:40:27.753Z,101355.72
2022-09-06T23:42:54.611Z,101367.56
2022-09-06T23:45:21.177Z,101351.44
2022-09-06T23:47:47.713Z,101346.16
2022-09-06T23:50:15.090Z,101334.53
2022-09-06T23:52:41.625Z,101325.63
2022-09-06T23:55:09.504Z,101316.31
2022-09-06T23:57:36.011Z,101311.03
